createdAt,value
2022-11-10T00:00:04.130Z,21.6
2022-11-10T00:01:47.837Z,21.6
2022-11-10T00:03:31.538Z,21.6
2022-11-10T00:05:15.224Z,21.6
2022-11-10T00:06:58.939Z,21.6
2022-11-10T00:08:42.642Z,21.6
2022-11-10T00:10:26.331Z,21.6
2022-11-10T00:12:10.033Z,21.6
2022-11-10T00:13:53.726Z,21.6
2022-11-10T00:15:37.430Z,21.6
2022-11-10T00:17:21.135Z,21.6
2022-11-10T00:19:04.834Z,21.6
2022-11-10T00:20:48.539Z,21.6
2022-11-10T00:22:32.257Z,21.6
2022-11-10T00:24:15.947Z,21.6
2022-11-10T00:25:59.638Z,21.6
2022-11-10T00:27:43.331Z,21.6
2022-11-10T00:29:27.034Z,21.5
2022-11-10T00:31:10.747Z,21.6
2022-11-10T00:32:54.446Z,21.5
2022-11-10T00:34:38.149Z,21.5
2022-11-10T00:36:21.901Z,21.5
2022-11-10T00:38:05.556Z,21.5
2022-11-10T00:39:49.245Z,21.5
2022-11-10T00:41:32.961Z,21.5
2022-11-10T00:43:16.660Z,21.5
2022-11-10T00:45:00.362Z,21.5
2022-11-10T00:46:44.067Z,21.5
2022-11-10T00:48:27.759Z,21.5
2022-11-10T00:50:11.478Z,21.5
2022-11-10T00:51:55.175Z,21.5
2022-11-10T00:53:38.882Z,21.5
2022-11-10T00:55:22.569Z,21.5
2022-11-10T00:57:06.288Z,21.5
2022-11-10T00:58:49.984Z,21.5
2022-11-10T01:00:33.687Z,21.5
2022-11-10T01:02:17.410Z,21.5
2022-11-10T01:04:01.145Z,21.5
2022-11-10T01:05:44.803Z,21.5
2022-11-10T01:07:28.495Z,21.5
2022-11-10T01:09:12.196Z,21.4
2022-11-10T01:10:55.886Z,21.4
2022-11-10T01:12:39.604Z,21.5
2022-11-10T01:14:23.292Z,21.4
2022-11-10T01:16:06.993Z,21.4
2022-11-10T01:17:50.719Z,21.5
2022-11-10T01:19:34.464Z,21.4
2022-11-10T01:21:18.108Z,21.4
2022-11-10T01:23:01.811Z,21.4
2022-11-10T01:24:45.620Z,21.5
2022-11-10T01:26:29.223Z,21.4
2022-11-10T01:28:12.928Z,21.4
2022-11-10T01:29:56.624Z,21.4
2022-11-10T01:31:40.321Z,21.4
2022-11-10T01:33:24.035Z,21.4
2022-11-10T01:35:07.837Z,21.4
2022-11-10T01:36:51.420Z,21.4
2022-11-10T01:38:35.129Z,21.4
2022-11-10T01:40:18.823Z,21.4
2022-11-10T01:42:02.556Z,21.4
2022-11-10T01:43:46.241Z,21.4
2022-11-10T01:45:29.914Z,21.4
2022-11-10T01:47:13.633Z,21.4
2022-11-10T01:48:57.329Z,21.4
2022-11-10T01:50:41.077Z,21.4
2022-11-10T01:52:24.735Z,21.4
2022-11-10T01:54:08.416Z,21.4
2022-11-10T01:55:52.136Z,21.4
2022-11-10T01:57:35.827Z,21.4
2022-11-10T01:59:19.519Z,21.4
2022-11-10T02:01:03.233Z,21.4
2022-11-10T02:02:46.948Z,21.4
2022-11-10T02:04:30.632Z,21.4
2022-11-10T02:06:14.337Z,21.4
2022-11-10T02:07:58.052Z,21.4
2022-11-10T02:09:41.744Z,21.4
2022-11-10T02:11:25.462Z,21.4
2022-11-10T02:13:09.169Z,21.4
2022-11-10T02:14:52.850Z,21.4
2022-11-10T02:16:36.556Z,21.4
2022-11-10T02:18:20.263Z,21.4
2022-11-10T02:20:03.978Z,21.4
2022-11-10T02:21:47.672Z,21.4
2022-11-10T02:23:31.371Z,21.4
2022-11-10T02:25:15.071Z,21.4
2022-11-10T02:26:58.775Z,21.4
2022-11-10T02:28:42.481Z,21.4
2022-11-10T02:30:26.184Z,21.4
2022-11-10T02:32:09.878Z,21.4
2022-11-10T02:33:53.580Z,21.4
2022-11-10T02:35:37.290Z,21.4
2022-11-10T02:37:20.993Z,21.4
2022-11-10T02:39:04.685Z,21.4
2022-11-10T02:40:48.403Z,21.4
2022-11-10T02:42:32.106Z,21.4
2022-11-10T02:44:15.809Z,21.4
2022-11-10T02:45:59.510Z,21.4
2022-11-10T02:47:43.200Z,21.4
2022-11-10T02:49:26.895Z,21.4
2022-11-10T02:51:10.609Z,21.4
2022-11-10T02:52:54.313Z,21.4
2022-11-10T02:54:38.001Z,21.4
2022-11-10T02:56:21.704Z,21.3
2022-11-10T02:58:05.409Z,21.3
2022-11-10T02:59:49.101Z,21.3
2022-11-10T03:01:32.802Z,21.3
2022-11-10T03:03:16.486Z,21.3
2022-11-10T03:05:00.198Z,21.3
2022-11-10T03:06:43.919Z,21.3
2022-11-10T03:08:27.606Z,21.3
2022-11-10T03:10:11.296Z,21.3
2022-11-10T03:11:55.006Z,21.3
2022-11-10T03:13:38.735Z,21.3
2022-11-10T03:15:22.407Z,21.3
2022-11-10T03:18:49.810Z,21.3
2022-11-10T03:20:33.525Z,21.3
2022-11-10T03:22:17.209Z,21.3
2022-11-10T03:24:00.920Z,21.3
2022-11-10T03:25:44.611Z,21.3
2022-11-10T03:27:28.313Z,21.3
2022-11-10T03:29:12.053Z,21.3
2022-11-10T03:30:55.716Z,21.3
2022-11-10T03:32:39.418Z,21.3
2022-11-10T03:34:23.107Z,21.3
2022-11-10T03:36:06.805Z,21.3
2022-11-10T03:37:50.510Z,21.3
2022-11-10T03:39:34.216Z,21.3
2022-11-10T03:41:17.923Z,21.2
2022-11-10T03:43:01.615Z,21.3
2022-11-10T03:44:45.312Z,21.3
2022-11-10T03:46:29.010Z,21.3
2022-11-10T03:48:12.734Z,21.3
2022-11-10T03:49:56.424Z,21.3
2022-11-10T03:51:40.113Z,21.2
2022-11-10T03:53:23.894Z,21.3
2022-11-10T03:55:07.543Z,21.3
2022-11-10T03:56:51.213Z,21.2
2022-11-10T03:58:34.967Z,21.3
2022-11-10T04:00:18.617Z,21.3
2022-11-10T04:02:02.329Z,21.2
2022-11-10T04:03:46.016Z,21.2
2022-11-10T04:05:29.715Z,21.2
2022-11-10T04:07:13.437Z,21.2
2022-11-10T04:08:57.137Z,21.2
2022-11-10T04:10:40.822Z,21.2
2022-11-10T04:12:24.522Z,21.2
2022-11-10T04:14:08.230Z,21.2
2022-11-10T04:15:51.936Z,21.2
2022-11-10T04:17:35.665Z,21.2
2022-11-10T04:19:19.330Z,21.2
2022-11-10T04:21:03.057Z,21.2
2022-11-10T04:22:46.766Z,21.2
2022-11-10T04:24:30.433Z,21.2
2022-11-10T04:26:14.148Z,21.2
2022-11-10T04:27:57.848Z,21.2
2022-11-10T04:29:41.546Z,21.2
2022-11-10T04:31:25.243Z,21.2
2022-11-10T04:33:08.944Z,21.2
2022-11-10T04:36:36.427Z,21.2
2022-11-10T04:38:20.055Z,21.2
2022-11-10T04:40:03.737Z,21.2
2022-11-10T04:41:47.439Z,21.2
2022-11-10T04:43:31.148Z,21.2
2022-11-10T04:45:14.860Z,21.2
2022-11-10T04:46:58.586Z,21.2
2022-11-10T04:48:42.243Z,21.2
2022-11-10T04:50:25.935Z,21.2
2022-11-10T04:52:09.663Z,21.2
2022-11-10T04:53:53.426Z,21.2
2022-11-10T04:55:37.145Z,21.2
2022-11-10T04:57:20.760Z,21.2
2022-11-10T04:59:04.464Z,21.2
2022-11-10T05:00:48.141Z,21.2
2022-11-10T05:02:31.962Z,21.2
2022-11-10T05:04:15.574Z,21.1
2022-11-10T05:05:59.254Z,21.1
2022-11-10T05:07:42.950Z,21.2
2022-11-10T05:09:26.647Z,21.2
2022-11-10T05:11:10.357Z,21.1
2022-11-10T05:12:54.054Z,21.1
2022-11-10T05:14:37.748Z,21.1
2022-11-10T05:16:21.462Z,21.1
2022-11-10T05:18:05.172Z,21.1
2022-11-10T05:19:48.874Z,21.1
2022-11-10T05:21:32.569Z,21.1
2022-11-10T05:23:16.283Z,21.1
2022-11-10T05:24:59.977Z,21.1
2022-11-10T05:26:43.691Z,21.1
2022-11-10T05:28:27.389Z,21.1
2022-11-10T05:30:11.139Z,21.1
2022-11-10T05:31:54.788Z,21.1
2022-11-10T05:33:38.521Z,21.1
2022-11-10T05:35:22.180Z,21.1
2022-11-10T05:37:05.886Z,21.1
2022-11-10T05:38:49.606Z,21.1
2022-11-10T05:40:33.285Z,21.1
2022-11-10T05:42:16.990Z,21.1
2022-11-10T05:44:00.698Z,21.1
2022-11-10T05:45:44.416Z,21.1
2022-11-10T05:47:28.156Z,21.1
2022-11-10T05:49:11.802Z,21.1
2022-11-10T05:52:39.193Z,21.1
2022-11-10T05:54:22.900Z,21.1
2022-11-10T05:56:06.595Z,21.1
2022-11-10T05:57:50.300Z,21.1
2022-11-10T05:59:34.005Z,21.1
2022-11-10T06:01:17.705Z,21.1
2022-11-10T06:03:01.388Z,21.1
2022-11-10T06:04:45.085Z,21.1
2022-11-10T06:06:28.829Z,21
2022-11-10T06:08:12.513Z,21
2022-11-10T06:09:56.201Z,21
2022-11-10T06:11:39.895Z,21
2022-11-10T06:13:23.607Z,21
2022-11-10T06:15:07.311Z,21
2022-11-10T06:18:34.708Z,21
2022-11-10T06:20:18.440Z,21
2022-11-10T06:22:02.117Z,21
2022-11-10T06:23:45.794Z,21
2022-11-10T06:25:29.512Z,21
2022-11-10T06:27:13.204Z,20.9
2022-11-10T06:28:56.926Z,20.9
2022-11-10T06:30:40.701Z,21
2022-11-10T06:32:24.483Z,20.9
2022-11-10T06:34:08.023Z,20.9
2022-11-10T06:35:51.739Z,20.9
2022-11-10T06:37:35.407Z,20.9
2022-11-10T06:39:19.193Z,20.9
2022-11-10T06:41:02.946Z,20.9
2022-11-10T06:42:46.550Z,20.9
2022-11-10T06:44:30.211Z,20.9
2022-11-10T06:46:13.989Z,20.9
2022-11-10T06:47:57.623Z,20.9
2022-11-10T06:49:41.318Z,20.9
2022-11-10T06:51:25.013Z,20.9
2022-11-10T06:53:08.764Z,20.9
2022-11-10T06:54:52.405Z,20.9
2022-11-10T06:56:36.178Z,20.9
2022-11-10T06:58:19.898Z,20.9
2022-11-10T07:00:03.533Z,20.9
2022-11-10T07:01:47.230Z,20.9
2022-11-10T07:03:30.936Z,20.9
2022-11-10T07:05:14.619Z,20.9
2022-11-10T07:06:58.405Z,20.9
2022-11-10T07:10:25.754Z,20.9
2022-11-10T07:12:09.553Z,20.9
2022-11-10T07:13:53.145Z,20.9
2022-11-10T07:15:36.866Z,20.9
2022-11-10T07:17:20.523Z,20.9
2022-11-10T07:19:04.332Z,20.9
2022-11-10T07:20:47.935Z,20.9
2022-11-10T07:22:31.650Z,20.9
2022-11-10T07:24:15.400Z,20.9
2022-11-10T07:25:59.061Z,20.9
2022-11-10T07:27:42.746Z,20.9
2022-11-10T07:29:26.464Z,20.9
2022-11-10T07:31:10.191Z,20.9
2022-11-10T07:32:53.904Z,20.9
2022-11-10T07:34:37.554Z,20.9
2022-11-10T07:36:21.275Z,20.9
2022-11-10T07:38:04.977Z,20.9
2022-11-10T07:39:48.681Z,20.9
2022-11-10T07:41:32.366Z,20.9
2022-11-10T07:43:16.072Z,20.9
2022-11-10T07:44:59.835Z,20.9
2022-11-10T07:46:43.500Z,21
2022-11-10T07:48:27.241Z,21.1
2022-11-10T07:50:10.904Z,21.1
2022-11-10T07:51:54.602Z,21.2
2022-11-10T07:53:38.309Z,21.2
2022-11-10T07:55:21.995Z,21.2
2022-11-10T07:57:05.700Z,21.3
2022-11-10T07:58:49.417Z,21.3
2022-11-10T08:00:33.097Z,21.4
2022-11-10T08:02:16.828Z,21.4
2022-11-10T08:04:00.593Z,21.4
2022-11-10T08:05:44.319Z,21.4
2022-11-10T08:07:27.907Z,21.3
2022-11-10T08:09:11.719Z,21.3
2022-11-10T08:10:55.321Z,21.3
2022-11-10T08:12:39.020Z,21.4
2022-11-10T08:14:22.772Z,21.4
2022-11-10T08:16:06.446Z,21.4
2022-11-10T08:17:50.125Z,21.4
2022-11-10T08:19:33.879Z,21.4
2022-11-10T08:21:17.530Z,21.3
2022-11-10T08:23:01.219Z,21.3
2022-11-10T08:24:44.937Z,21.4
2022-11-10T08:26:28.790Z,21.4
2022-11-10T08:28:12.408Z,21.4
2022-11-10T08:29:56.074Z,21.5
2022-11-10T08:31:39.911Z,21.5
2022-11-10T08:33:23.551Z,21.5
2022-11-10T08:35:07.169Z,21.6
2022-11-10T08:36:50.870Z,21.6
2022-11-10T08:38:34.551Z,21.6
2022-11-10T08:40:18.324Z,21.6
2022-11-10T08:42:01.956Z,21.7
2022-11-10T08:43:45.649Z,21.7
2022-11-10T08:45:29.360Z,21.7
2022-11-10T08:47:13.061Z,21.7
2022-11-10T08:48:56.886Z,21.7
2022-11-10T08:50:40.442Z,21.7
2022-11-10T08:52:24.157Z,21.7
2022-11-10T08:54:07.900Z,21.7
2022-11-10T08:55:51.591Z,21.8
2022-11-10T08:57:35.252Z,21.8
2022-11-10T08:59:18.968Z,21.8
2022-11-10T09:01:02.671Z,21.8
2022-11-10T09:02:46.515Z,21.8
2022-11-10T09:04:30.122Z,21.9
2022-11-10T09:06:13.809Z,21.9
2022-11-10T09:07:57.541Z,21.9
2022-11-10T09:09:41.172Z,21.9
2022-11-10T09:11:24.847Z,21.9
2022-11-10T09:13:08.570Z,21.9
2022-11-10T09:14:52.321Z,21.9
2022-11-10T09:16:36.092Z,22
2022-11-10T09:18:19.667Z,22
2022-11-10T09:20:03.353Z,22
2022-11-10T09:21:47.109Z,22
2022-11-10T09:23:30.756Z,22
2022-11-10T09:25:14.463Z,22
2022-11-10T09:26:58.213Z,22
2022-11-10T09:28:41.861Z,22
2022-11-10T09:30:25.572Z,22
2022-11-10T09:32:09.347Z,22
2022-11-10T09:33:52.969Z,22
2022-11-10T09:35:36.692Z,22
2022-11-10T09:37:20.409Z,22
2022-11-10T09:39:04.080Z,22
2022-11-10T09:40:47.765Z,22
2022-11-10T09:42:31.552Z,22
2022-11-10T09:44:15.188Z,22
2022-11-10T09:45:58.874Z,22
2022-11-10T09:47:42.572Z,21.9
2022-11-10T09:49:26.273Z,21.9
2022-11-10T09:51:10.041Z,21.9
2022-11-10T09:52:53.731Z,21.9
2022-11-10T09:54:37.371Z,21.9
2022-11-10T09:56:21.064Z,21.9
2022-11-10T09:58:04.772Z,21.9
2022-11-10T09:59:48.466Z,21.9
2022-11-10T10:01:32.214Z,21.9
2022-11-10T10:03:15.958Z,21.9
2022-11-10T10:04:59.582Z,21.9
2022-11-10T10:06:43.387Z,21.9
2022-11-10T10:08:26.974Z,22
2022-11-10T10:10:10.741Z,22
2022-11-10T10:11:54.433Z,22
2022-11-10T10:13:38.077Z,22
2022-11-10T10:15:21.853Z,22.1
2022-11-10T10:17:05.501Z,22.1
2022-11-10T10:18:49.225Z,22.1
2022-11-10T10:20:32.892Z,22.1
2022-11-10T10:22:16.594Z,22.1
2022-11-10T10:24:00.283Z,22.2
2022-11-10T10:25:44.011Z,22.2
2022-11-10T10:27:27.717Z,22.2
2022-11-10T10:29:11.422Z,22.2
2022-11-10T10:30:55.124Z,22.2
2022-11-10T10:32:38.873Z,22.2
2022-11-10T10:34:22.537Z,22.2
2022-11-10T10:36:06.198Z,22.3
2022-11-10T10:37:49.995Z,22.3
2022-11-10T10:39:33.646Z,22.3
2022-11-10T10:41:17.324Z,22.3
2022-11-10T10:43:01.001Z,22.3
2022-11-10T10:44:44.709Z,22.3
2022-11-10T10:46:28.415Z,22.3
2022-11-10T10:48:12.125Z,22.3
2022-11-10T10:49:55.805Z,22.4
2022-11-10T10:51:39.548Z,22.4
2022-11-10T10:53:23.310Z,22.4
2022-11-10T10:55:06.997Z,22.4
2022-11-10T10:56:50.982Z,22.4
2022-11-10T10:58:34.435Z,22.4
2022-11-10T11:00:18.024Z,22.4
2022-11-10T11:02:01.714Z,22.4
2022-11-10T11:03:45.404Z,22.4
2022-11-10T11:05:29.190Z,22.4
2022-11-10T11:07:12.804Z,22.4
2022-11-10T11:08:56.529Z,22.4
2022-11-10T11:10:40.357Z,22.4
2022-11-10T11:12:23.972Z,22.5
2022-11-10T11:14:07.726Z,22.5
2022-11-10T11:15:51.327Z,22.5
2022-11-10T11:17:35.009Z,22.5
2022-11-10T11:19:18.710Z,22.5
2022-11-10T11:21:02.421Z,22.5
2022-11-10T11:22:46.106Z,22.5
2022-11-10T11:24:29.802Z,22.6
2022-11-10T11:26:13.603Z,22.6
2022-11-10T11:27:57.253Z,22.6
2022-11-10T11:29:40.917Z,22.6
2022-11-10T11:31:24.660Z,22.6
2022-11-10T11:33:08.370Z,22.7
2022-11-10T11:34:52.016Z,22.7
2022-11-10T11:36:35.739Z,22.7
2022-11-10T11:38:19.427Z,22.7
2022-11-10T11:40:03.135Z,22.7
2022-11-10T11:41:46.829Z,22.7
2022-11-10T11:43:30.599Z,22.7
2022-11-10T11:45:14.244Z,22.7
2022-11-10T11:46:57.926Z,22.7
2022-11-10T11:48:41.653Z,22.8
2022-11-10T11:50:25.375Z,22.8
2022-11-10T11:52:09.071Z,22.8
2022-11-10T11:53:52.761Z,22.8
2022-11-10T11:55:36.456Z,22.9
2022-11-10T11:57:20.163Z,22.9
2022-11-10T11:59:03.879Z,22.9
2022-11-10T12:00:47.604Z,22.9
2022-11-10T12:02:31.265Z,22.9
2022-11-10T12:04:14.971Z,22.9
2022-11-10T12:05:58.737Z,22.9
2022-11-10T12:07:42.355Z,22.9
2022-11-10T12:09:26.163Z,22.9
2022-11-10T12:11:09.843Z,22.9
2022-11-10T12:12:53.481Z,22.9
2022-11-10T12:14:37.162Z,22.9
2022-11-10T12:16:20.924Z,22.9
2022-11-10T12:18:04.588Z,22.8
2022-11-10T12:19:48.266Z,22.8
2022-11-10T12:21:31.969Z,22.7
2022-11-10T12:23:15.662Z,22.7
2022-11-10T12:24:59.380Z,22.7
2022-11-10T12:26:43.075Z,22.7
2022-11-10T12:28:26.795Z,22.7
2022-11-10T12:30:10.570Z,22.6
2022-11-10T12:31:54.177Z,22.6
2022-11-10T12:33:37.886Z,22.6
2022-11-10T12:35:21.565Z,22.6
2022-11-10T12:37:05.293Z,22.5
2022-11-10T12:38:48.980Z,22.6
2022-11-10T12:40:32.683Z,22.6
2022-11-10T12:42:16.377Z,22.5
2022-11-10T12:44:00.088Z,22.6
2022-11-10T12:45:43.800Z,22.6
2022-11-10T12:47:27.631Z,22.6
2022-11-10T12:49:11.215Z,22.6
2022-11-10T12:50:54.888Z,22.6
2022-11-10T12:52:38.615Z,22.6
2022-11-10T12:54:22.300Z,22.6
2022-11-10T12:56:06.021Z,22.6
2022-11-10T12:57:49.700Z,22.6
2022-11-10T12:59:33.399Z,22.6
2022-11-10T13:01:17.102Z,22.5
2022-11-10T13:03:00.836Z,22.5
2022-11-10T13:04:44.530Z,22.5
2022-11-10T13:06:28.211Z,22.5
2022-11-10T13:08:11.919Z,22.5
2022-11-10T13:09:55.686Z,22.5
2022-11-10T13:11:39.459Z,22.4
2022-11-10T13:13:23.038Z,22.4
2022-11-10T13:15:06.724Z,22.5
2022-11-10T13:16:50.439Z,22.5
2022-11-10T13:18:34.226Z,22.5
2022-11-10T13:20:17.828Z,22.5
2022-11-10T13:22:01.573Z,22.5
2022-11-10T13:23:45.309Z,22.5
2022-11-10T13:25:28.931Z,22.5
2022-11-10T13:27:12.651Z,22.5
2022-11-10T13:28:56.355Z,22.6
2022-11-10T13:30:40.051Z,22.6
2022-11-10T13:32:23.965Z,22.6
2022-11-10T13:34:07.449Z,22.6
2022-11-10T13:35:51.177Z,22.6
2022-11-10T13:37:34.892Z,22.6
2022-11-10T13:39:18.589Z,22.7
2022-11-10T13:41:02.329Z,22.7
2022-11-10T13:42:45.967Z,22.7
2022-11-10T13:44:29.749Z,22.7
2022-11-10T13:46:13.498Z,22.7
2022-11-10T13:47:57.138Z,22.7
2022-11-10T13:49:40.849Z,22.7
2022-11-10T13:51:24.606Z,22.7
2022-11-10T13:53:08.195Z,22.7
2022-11-10T13:54:51.958Z,22.7
2022-11-10T13:56:35.590Z,22.7
2022-11-10T13:58:19.281Z,22.7
2022-11-10T14:00:03.092Z,22.7
2022-11-10T14:01:46.693Z,22.7
2022-11-10T14:03:30.390Z,22.7
2022-11-10T14:05:14.086Z,22.7
2022-11-10T14:06:57.843Z,22.7
2022-11-10T14:08:41.498Z,22.7
2022-11-10T14:10:25.203Z,22.6
2022-11-10T14:12:08.894Z,22.7
2022-11-10T14:13:52.605Z,22.6
2022-11-10T14:15:36.308Z,22.6
2022-11-10T14:17:20.040Z,22.6
2022-11-10T14:19:03.727Z,22.6
2022-11-10T14:20:47.450Z,22.6
2022-11-10T14:22:31.178Z,22.5
2022-11-10T14:24:14.810Z,22.5
2022-11-10T14:25:58.486Z,22.5
2022-11-10T14:27:42.204Z,22.5
2022-11-10T14:29:25.903Z,22.5
2022-11-10T14:31:09.728Z,22.5
2022-11-10T14:32:53.304Z,22.5
2022-11-10T14:34:36.994Z,22.4
2022-11-10T14:36:20.701Z,22.4
2022-11-10T14:38:04.439Z,22.4
2022-11-10T14:39:48.091Z,22.4
2022-11-10T14:41:31.800Z,22.4
2022-11-10T14:43:15.630Z,22.4
2022-11-10T14:44:59.250Z,22.3
2022-11-10T14:46:42.898Z,22.3
2022-11-10T14:48:26.619Z,22.3
2022-11-10T14:50:10.366Z,22.3
2022-11-10T14:51:54.015Z,22.3
2022-11-10T14:53:37.765Z,22.2
2022-11-10T14:55:21.403Z,22.2
2022-11-10T14:57:05.123Z,22.2
2022-11-10T14:58:48.808Z,22.1
2022-11-10T15:00:32.508Z,22.1
2022-11-10T15:02:16.311Z,22.1
2022-11-10T15:03:59.936Z,22.1
2022-11-10T15:05:43.610Z,22.1
2022-11-10T15:07:27.319Z,22
2022-11-10T15:09:11.012Z,22
2022-11-10T15:10:54.729Z,22
2022-11-10T15:12:38.416Z,22
2022-11-10T15:14:22.116Z,22
2022-11-10T15:16:05.821Z,22
2022-11-10T15:17:49.534Z,22
2022-11-10T15:19:33.248Z,21.9
2022-11-10T15:21:16.919Z,21.9
2022-11-10T15:23:00.708Z,21.9
2022-11-10T15:24:44.381Z,21.9
2022-11-10T15:26:28.105Z,21.9
2022-11-10T15:28:11.721Z,21.8
2022-11-10T15:29:55.458Z,21.8
2022-11-10T15:31:39.221Z,21.7
2022-11-10T15:33:22.833Z,21.7
2022-11-10T15:35:06.564Z,21.7
2022-11-10T15:36:50.234Z,21.6
2022-11-10T15:38:33.942Z,21.6
2022-11-10T15:40:17.629Z,21.6
2022-11-10T15:42:01.398Z,21.6
2022-11-10T15:43:45.031Z,21.5
2022-11-10T15:45:28.740Z,21.5
2022-11-10T15:47:12.533Z,21.5
2022-11-10T15:48:56.130Z,21.5
2022-11-10T15:50:39.886Z,21.4
2022-11-10T15:52:23.582Z,21.4
2022-11-10T15:54:07.249Z,21.4
2022-11-10T15:55:50.948Z,21.4
2022-11-10T15:57:34.654Z,21.4
2022-11-10T15:59:18.345Z,21.3
2022-11-10T16:01:02.068Z,21.3
2022-11-10T16:02:45.749Z,21.3
2022-11-10T16:04:29.467Z,21.3
2022-11-10T16:06:13.155Z,21.2
2022-11-10T16:07:56.976Z,21.2
2022-11-10T16:09:40.553Z,21.2
2022-11-10T16:11:24.329Z,21.2
2022-11-10T16:13:07.970Z,21.2
2022-11-10T16:14:51.724Z,21.2
2022-11-10T16:16:35.387Z,21.2
2022-11-10T16:18:19.063Z,21.2
2022-11-10T16:20:02.771Z,21.1
2022-11-10T16:21:46.478Z,21.1
2022-11-10T16:23:30.243Z,21.1
2022-11-10T16:25:13.876Z,21.1
2022-11-10T16:26:57.603Z,21.1
2022-11-10T16:28:41.269Z,21.1
2022-11-10T16:30:24.990Z,21.1
2022-11-10T16:32:08.770Z,21
2022-11-10T16:33:52.380Z,21
2022-11-10T16:35:36.110Z,21
2022-11-10T16:37:19.795Z,21
2022-11-10T16:39:03.660Z,21
2022-11-10T16:40:47.322Z,21
2022-11-10T16:42:30.912Z,21
2022-11-10T16:44:14.654Z,21
2022-11-10T16:45:58.325Z,20.9
2022-11-10T16:47:42.009Z,20.9
2022-11-10T16:49:25.709Z,20.9
2022-11-10T16:51:09.456Z,20.9
2022-11-10T16:52:53.163Z,20.9
2022-11-10T16:54:36.824Z,20.9
2022-11-10T16:56:20.592Z,20.9
2022-11-10T16:58:04.235Z,20.9
2022-11-10T16:59:47.929Z,20.9
2022-11-10T17:01:31.613Z,20.9
2022-11-10T17:03:15.315Z,20.9
2022-11-10T17:04:59.023Z,21
2022-11-10T17:06:42.730Z,21
2022-11-10T17:08:26.414Z,21
2022-11-10T17:10:10.130Z,21.1
2022-11-10T17:11:53.858Z,21.1
2022-11-10T17:13:37.540Z,21.1
2022-11-10T17:15:21.271Z,21.1
2022-11-10T17:17:04.931Z,21.1
2022-11-10T17:18:48.626Z,21.2
2022-11-10T17:20:32.348Z,21.2
2022-11-10T17:22:16.049Z,21.2
2022-11-10T17:23:59.731Z,21.2
2022-11-10T17:25:43.438Z,21.2
2022-11-10T17:27:27.149Z,21.2
2022-11-10T17:29:10.873Z,21.2
2022-11-10T17:30:54.545Z,21.3
2022-11-10T17:32:38.331Z,21.3
2022-11-10T17:34:21.957Z,21.3
2022-11-10T17:36:05.793Z,21.3
2022-11-10T17:37:49.359Z,21.3
2022-11-10T17:39:33.058Z,21.3
2022-11-10T17:41:16.779Z,21.3
2022-11-10T17:43:00.480Z,21.4
2022-11-10T17:44:44.171Z,21.4
2022-11-10T17:46:27.904Z,21.4
2022-11-10T17:48:11.618Z,21.4
2022-11-10T17:49:55.391Z,21.4
2022-11-10T17:51:38.985Z,21.4
2022-11-10T17:53:22.689Z,21.4
2022-11-10T17:55:06.395Z,21.4
2022-11-10T17:56:50.094Z,21.5
2022-11-10T17:58:33.773Z,21.4
2022-11-10T18:00:17.487Z,21.5
2022-11-10T18:02:01.312Z,21.5
2022-11-10T18:03:44.896Z,21.5
2022-11-10T18:05:28.591Z,21.5
2022-11-10T18:07:12.316Z,21.5
2022-11-10T18:08:56.005Z,21.5
2022-11-10T18:10:39.709Z,21.5
2022-11-10T18:12:23.401Z,21.5
2022-11-10T18:14:07.100Z,21.5
2022-11-10T18:15:50.854Z,21.5
2022-11-10T18:17:34.520Z,21.5
2022-11-10T18:19:18.220Z,21.5
2022-11-10T18:21:01.970Z,21.6
2022-11-10T18:22:45.602Z,21.6
2022-11-10T18:24:29.374Z,21.6
2022-11-10T18:26:13.060Z,21.6
2022-11-10T18:27:56.738Z,21.6
2022-11-10T18:29:40.435Z,21.6
2022-11-10T18:31:24.128Z,21.6
2022-11-10T18:33:07.824Z,21.7
2022-11-10T18:34:51.532Z,21.7
2022-11-10T18:36:35.268Z,21.7
2022-11-10T18:38:19.037Z,21.7
2022-11-10T18:40:02.714Z,21.7
2022-11-10T18:41:46.418Z,21.7
2022-11-10T18:43:30.060Z,21.8
2022-11-10T18:45:13.795Z,21.7
2022-11-10T18:46:57.460Z,21.7
2022-11-10T18:48:41.181Z,21.7
2022-11-10T18:50:24.860Z,21.7
2022-11-10T18:52:08.564Z,21.7
2022-11-10T18:53:52.281Z,21.7
2022-11-10T18:55:35.986Z,21.7
2022-11-10T18:57:19.689Z,21.7
2022-11-10T18:59:03.362Z,21.7
2022-11-10T19:00:47.074Z,21.7
2022-11-10T19:02:30.796Z,21.7
2022-11-10T19:04:14.490Z,21.7
2022-11-10T19:05:58.192Z,21.6
2022-11-10T19:07:41.888Z,21.6
2022-11-10T19:09:25.590Z,21.6
2022-11-10T19:11:09.354Z,21.6
2022-11-10T19:12:53.003Z,21.6
2022-11-10T19:14:36.698Z,21.6
2022-11-10T19:16:20.397Z,21.6
2022-11-10T19:18:04.105Z,21.6
2022-11-10T19:19:47.816Z,21.6
2022-11-10T19:21:31.507Z,21.6
2022-11-10T19:23:15.219Z,21.6
2022-11-10T19:24:59.011Z,21.7
2022-11-10T19:26:42.606Z,21.7
2022-11-10T19:28:26.299Z,21.6
2022-11-10T19:30:10.050Z,21.6
2022-11-10T19:31:53.783Z,21.6
2022-11-10T19:33:37.506Z,21.6
2022-11-10T19:35:21.119Z,21.6
2022-11-10T19:37:04.817Z,21.7
2022-11-10T19:38:48.595Z,21.6
2022-11-10T19:40:32.258Z,21.6
2022-11-10T19:42:15.975Z,21.6
2022-11-10T19:43:59.628Z,21.6
2022-11-10T19:45:43.309Z,21.6
2022-11-10T19:47:27.108Z,21.6
2022-11-10T19:49:10.743Z,21.6
2022-11-10T19:50:54.536Z,21.6
2022-11-10T19:52:38.133Z,21.6
2022-11-10T19:54:21.877Z,21.6
2022-11-10T19:56:05.599Z,21.6
2022-11-10T19:57:49.245Z,21.6
2022-11-10T19:59:32.978Z,21.6
2022-11-10T20:01:16.649Z,21.6
2022-11-10T20:03:00.360Z,21.6
2022-11-10T20:04:44.067Z,21.6
2022-11-10T20:06:27.896Z,21.6
2022-11-10T20:08:11.513Z,21.6
2022-11-10T20:09:55.215Z,21.6
2022-11-10T20:11:39.057Z,21.6
2022-11-10T20:13:22.555Z,21.6
2022-11-10T20:15:06.325Z,21.6
2022-11-10T20:16:50.028Z,21.6
2022-11-10T20:18:33.791Z,21.6
2022-11-10T20:20:17.408Z,21.6
2022-11-10T20:22:01.076Z,21.6
2022-11-10T20:23:44.769Z,21.6
2022-11-10T20:25:28.468Z,21.6
2022-11-10T20:27:12.150Z,21.5
2022-11-10T20:28:55.876Z,21.5
2022-11-10T20:30:39.572Z,21.5
2022-11-10T20:32:23.335Z,21.5
2022-11-10T20:34:07.040Z,21.5
2022-11-10T20:35:50.673Z,21.5
2022-11-10T20:37:34.383Z,21.5
2022-11-10T20:39:18.117Z,21.5
2022-11-10T20:41:01.758Z,21.5
2022-11-10T20:42:45.573Z,21.5
2022-11-10T20:44:29.201Z,21.5
2022-11-10T20:46:12.920Z,21.5
2022-11-10T20:47:56.578Z,21.4
2022-11-10T20:49:40.301Z,21.5
2022-11-10T20:51:23.968Z,21.4
2022-11-10T20:53:07.668Z,21.4
2022-11-10T20:54:51.359Z,21.4
2022-11-10T20:56:35.096Z,21.4
2022-11-10T20:58:18.838Z,21.4
2022-11-10T21:00:02.476Z,21.4
2022-11-10T21:01:46.195Z,21.4
2022-11-10T21:03:29.898Z,21.4
2022-11-10T21:05:13.590Z,21.4
2022-11-10T21:06:57.278Z,21.4
2022-11-10T21:08:40.989Z,21.4
2022-11-10T21:10:24.699Z,21.4
2022-11-10T21:12:08.444Z,21.4
2022-11-10T21:13:52.088Z,21.4
2022-11-10T21:15:35.783Z,21.4
2022-11-10T21:17:19.495Z,21.3
2022-11-10T21:19:03.207Z,21.4
2022-11-10T21:20:46.892Z,21.3
2022-11-10T21:22:30.587Z,21.3
2022-11-10T21:24:14.304Z,21.3
2022-11-10T21:25:58.018Z,21.3
2022-11-10T21:27:41.717Z,21.3
2022-11-10T21:29:25.405Z,21.3
2022-11-10T21:31:09.118Z,21.3
2022-11-10T21:32:52.832Z,21.3
2022-11-10T21:34:36.517Z,21.3
2022-11-10T21:36:20.220Z,21.3
2022-11-10T21:38:03.918Z,21.3
2022-11-10T21:39:47.615Z,21.2
2022-11-10T21:41:31.329Z,21.2
2022-11-10T21:43:15.017Z,21.2
2022-11-10T21:44:58.736Z,21.2
2022-11-10T21:46:42.437Z,21.2
2022-11-10T21:48:26.124Z,21.2
2022-11-10T21:50:09.845Z,21.2
2022-11-10T21:51:53.549Z,21.2
2022-11-10T21:53:37.254Z,21.2
2022-11-10T21:55:20.948Z,21.2
2022-11-10T21:57:04.657Z,21.2
2022-11-10T21:58:48.351Z,21.2
2022-11-10T22:00:32.049Z,21.1
2022-11-10T22:02:15.837Z,21.1
2022-11-10T22:03:59.462Z,21.1
2022-11-10T22:07:26.935Z,21.1
2022-11-10T22:09:10.544Z,21.1
2022-11-10T22:10:54.309Z,21.1
2022-11-10T22:12:37.972Z,21.1
2022-11-10T22:14:21.654Z,21.1
2022-11-10T22:16:05.359Z,21.1
2022-11-10T22:17:49.065Z,21.1
2022-11-10T22:19:32.776Z,21.1
2022-11-10T22:21:16.450Z,21.1
2022-11-10T22:23:00.165Z,21.1
2022-11-10T22:24:43.887Z,21.1
2022-11-10T22:26:27.568Z,21.1
2022-11-10T22:28:11.263Z,21.1
2022-11-10T22:29:54.996Z,21.1
2022-11-10T22:31:38.675Z,21.1
2022-11-10T22:33:22.370Z,21.1
2022-11-10T22:35:06.065Z,21.1
2022-11-10T22:36:49.769Z,21.1
2022-11-10T22:38:33.492Z,21
2022-11-10T22:40:17.192Z,21
2022-11-10T22:42:00.902Z,21
2022-11-10T22:43:44.613Z,21
2022-11-10T22:45:28.303Z,21
2022-11-10T22:47:12.009Z,21
2022-11-10T22:48:55.706Z,21
2022-11-10T22:50:39.392Z,21
2022-11-10T22:52:23.105Z,21
2022-11-10T22:54:06.808Z,20.9
2022-11-10T22:55:50.557Z,20.9
2022-11-10T22:57:34.246Z,20.9
2022-11-10T22:59:17.910Z,20.9
2022-11-10T23:01:01.621Z,20.9
2022-11-10T23:02:45.305Z,20.9
2022-11-10T23:04:28.994Z,20.9
2022-11-10T23:06:12.718Z,20.9
2022-11-10T23:07:56.513Z,20.8
2022-11-10T23:09:40.130Z,20.9
2022-11-10T23:11:23.813Z,20.8
2022-11-10T23:13:07.514Z,20.8
2022-11-10T23:14:51.227Z,20.8
2022-11-10T23:16:34.969Z,20.8